createdAt,value
2017-09-19T00:01:05.946Z,1016.32
2017-09-19T00:02:28.173Z,1016.37
2017-09-19T00:03:49.322Z,1016.3
2017-09-19T00:05:11.134Z,1016.35
2017-09-19T00:06:32.996Z,1016.33
2017-09-19T00:07:54.162Z,1016.31
2017-09-19T00:09:16.572Z,1016.33
2017-09-19T00:10:37.773Z,1016.33
2017-09-19T00:11:59.243Z,1016.29
2017-09-19T00:13:21.042Z,1016.36
2017-09-19T00:14:43.486Z,1016.34
2017-09-19T00:16:05.772Z,1016.39
2017-09-19T00:17:27.593Z,1016.4
2017-09-19T00:18:49.393Z,1016.48
2017-09-19T00:20:11.448Z,1016.5
2017-09-19T00:21:32.949Z,1016.48
2017-09-19T00:22:54.853Z,1016.54
2017-09-19T00:24:17.035Z,1016.54
2017-09-19T00:25:38.602Z,1016.52
2017-09-19T00:27:00.763Z,1016.6
2017-09-19T00:28:22.955Z,1016.58
2017-09-19T00:29:45.084Z,1016.59
2017-09-19T00:31:07.193Z,1016.58
2017-09-19T00:32:28.988Z,1016.57
2017-09-19T00:33:50.470Z,1016.52
2017-09-19T00:35:12.273Z,1016.55
2017-09-19T00:36:34.023Z,1016.55
2017-09-19T00:37:56.143Z,1016.53
2017-09-19T00:39:17.646Z,1016.53
2017-09-19T00:40:39.790Z,1016.53
2017-09-19T00:42:01.889Z,1016.52
2017-09-19T00:43:23.374Z,1016.52
2017-09-19T00:44:45.513Z,1016.54
2017-09-19T00:46:07.645Z,1016.54
2017-09-19T00:47:29.783Z,1016.56
2017-09-19T00:48:51.703Z,1016.52
2017-09-19T00:50:13.509Z,1016.5
2017-09-19T00:51:35.962Z,1016.47
2017-09-19T00:52:58.063Z,1016.53
2017-09-19T00:54:19.886Z,1016.5
2017-09-19T00:55:41.683Z,1016.48
2017-09-19T00:57:03.491Z,1016.45
2017-09-19T00:58:25.923Z,1016.5
2017-09-19T00:59:48.097Z,1016.43
2017-09-19T01:01:09.934Z,1016.48
2017-09-19T01:02:32.163Z,1016.41
2017-09-19T01:03:54.853Z,1016.43
2017-09-19T01:05:16.758Z,1016.45
2017-09-19T01:06:38.252Z,1016.4
2017-09-19T01:08:00.063Z,1016.4
2017-09-19T01:09:22.342Z,1016.41
2017-09-19T01:10:43.954Z,1016.4
2017-09-19T01:12:05.761Z,1016.43
2017-09-19T01:13:27.574Z,1016.46
2017-09-19T01:14:49.651Z,1016.44
2017-09-19T01:16:11.778Z,1016.41
2017-09-19T01:17:33.334Z,1016.44
2017-09-19T01:18:55.464Z,1016.45
2017-09-19T01:20:18.330Z,1016.42
2017-09-19T01:21:39.183Z,1016.43
2017-09-19T01:23:00.676Z,1016.47
2017-09-19T01:24:23.129Z,1016.47
2017-09-19T01:25:45.554Z,1016.45
2017-09-19T01:27:07.666Z,1016.48
2017-09-19T01:28:29.581Z,1016.44
2017-09-19T01:29:51.711Z,1016.42
2017-09-19T01:31:13.574Z,1016.37
2017-09-19T01:32:35.376Z,1016.37
2017-09-19T01:33:57.174Z,1016.38
2017-09-19T01:35:19.313Z,1016.38
2017-09-19T01:36:41.430Z,1016.35
2017-09-19T01:38:03.584Z,1016.32
2017-09-19T01:39:25.402Z,1016.31
2017-09-19T01:40:47.218Z,1016.35
2017-09-19T01:42:09.413Z,1016.35
2017-09-19T01:43:31.210Z,1016.34
2017-09-19T01:44:52.369Z,1016.32
2017-09-19T01:46:13.863Z,1016.36
2017-09-19T01:47:36.042Z,1016.3
2017-09-19T01:48:57.204Z,1016.27
2017-09-19T01:50:19.673Z,1016.32
2017-09-19T01:51:41.173Z,1016.34
2017-09-19T01:53:03.341Z,1016.3
2017-09-19T01:54:25.553Z,1016.32
2017-09-19T01:55:47.670Z,1016.3
2017-09-19T01:57:10.211Z,1016.32
2017-09-19T01:58:32.642Z,1016.32
2017-09-19T01:59:54.799Z,1016.31
2017-09-19T02:01:16.606Z,1016.31
2017-09-19T02:02:38.084Z,1016.31
2017-09-19T02:04:00.183Z,1016.34
2017-09-19T02:05:22.614Z,1016.35
2017-09-19T02:06:44.097Z,1016.31
2017-09-19T02:08:05.911Z,1016.28
2017-09-19T02:09:28.326Z,1016.3
2017-09-19T02:10:50.460Z,1016.26
2017-09-19T02:12:13.013Z,1016.21
2017-09-19T02:13:34.807Z,1016.28
2017-09-19T02:14:57.291Z,1016.25
2017-09-19T02:16:19.523Z,1016.29
2017-09-19T02:17:41.663Z,1016.32
2017-09-19T02:19:03.153Z,1016.29
2017-09-19T02:20:25.873Z,1016.32
2017-09-19T02:21:47.992Z,1016.32
2017-09-19T02:23:10.109Z,1016.32
2017-09-19T02:24:32.332Z,1016.3
2017-09-19T02:25:54.422Z,1016.3
2017-09-19T02:27:15.606Z,1016.31
2017-09-19T02:28:38.043Z,1016.33
2017-09-19T02:30:00.495Z,1016.36
2017-09-19T02:31:22.696Z,1016.32
2017-09-19T02:32:44.533Z,1016.36
2017-09-19T02:34:06.080Z,1016.33
2017-09-19T02:35:27.893Z,1016.36
2017-09-19T02:36:49.720Z,1016.37
2017-09-19T02:38:11.533Z,1016.31
2017-09-19T02:39:33.058Z,1016.3
2017-09-19T02:40:55.266Z,1016.32
2017-09-19T02:42:17.650Z,1016.29
2017-09-19T02:43:39.453Z,1016.29
2017-09-19T02:45:00.625Z,1016.33
2017-09-19T02:46:22.762Z,1016.28
2017-09-19T02:47:44.902Z,1016.34
2017-09-19T02:49:06.393Z,1016.31
2017-09-19T02:50:28.517Z,1016.34
2017-09-19T02:51:50.334Z,1016.29
2017-09-19T02:53:12.072Z,1016.29
2017-09-19T02:54:33.890Z,1016.27
2017-09-19T02:55:56.121Z,1016.28
2017-09-19T02:57:17.274Z,1016.3
2017-09-19T02:58:39.888Z,1016.29
2017-09-19T03:00:01.361Z,1016.25
2017-09-19T03:01:23.939Z,1016.25
2017-09-19T03:02:45.412Z,1016.26
2017-09-19T03:04:07.275Z,1016.26
2017-09-19T03:05:29.769Z,1016.25
2017-09-19T03:06:51.910Z,1016.21
2017-09-19T03:08:13.711Z,1016.2
2017-09-19T03:09:36.164Z,1016.26
2017-09-19T03:10:58.621Z,1016.21
2017-09-19T03:12:20.819Z,1016.18
2017-09-19T03:13:42.282Z,1016.21
2017-09-19T03:15:05.028Z,1016.26
2017-09-19T03:16:26.496Z,1016.25
2017-09-19T03:17:48.347Z,1016.21
2017-09-19T03:19:10.466Z,1016.18
2017-09-19T03:20:32.512Z,1016.17
2017-09-19T03:21:53.663Z,1016.19
2017-09-19T03:23:15.544Z,1016.16
2017-09-19T03:24:37.652Z,1016.15
2017-09-19T03:25:59.393Z,1016.15
2017-09-19T03:27:21.224Z,1016.18
2017-09-19T03:28:43.692Z,1016.18
2017-09-19T03:30:05.504Z,1016.2
2017-09-19T03:31:26.924Z,1016.18
2017-09-19T03:32:49.373Z,1016.16
2017-09-19T03:34:11.180Z,1016.17
2017-09-19T03:35:33.014Z,1016.14
2017-09-19T03:36:55.374Z,1016.18
2017-09-19T03:38:17.500Z,1016.25
2017-09-19T03:39:39.620Z,1016.26
2017-09-19T03:41:02.062Z,1016.29
2017-09-19T03:42:24.165Z,1016.28
2017-09-19T03:43:45.987Z,1016.29
2017-09-19T03:45:07.830Z,1016.28
2017-09-19T03:46:29.623Z,1016.29
2017-09-19T03:47:51.783Z,1016.29
2017-09-19T03:49:13.623Z,1016.31
2017-09-19T03:50:35.740Z,1016.33
2017-09-19T03:51:58.182Z,1016.34
2017-09-19T03:53:20.348Z,1016.35
2017-09-19T03:54:42.472Z,1016.34
2017-09-19T03:56:04.723Z,1016.32
2017-09-19T03:57:26.904Z,1016.31
2017-09-19T03:58:49.343Z,1016.35
2017-09-19T04:00:10.823Z,1016.33
2017-09-19T04:01:32.981Z,1016.35
2017-09-19T04:02:54.833Z,1016.34
2017-09-19T04:04:16.934Z,1016.36
2017-09-19T04:05:38.736Z,1016.32
2017-09-19T04:07:00.892Z,1016.35
2017-09-19T04:08:22.099Z,1016.4
2017-09-19T04:09:44.164Z,1016.36
2017-09-19T04:11:06.078Z,1016.4
2017-09-19T04:12:28.513Z,1016.39
2017-09-19T04:13:50.333Z,1016.41
2017-09-19T04:15:13.043Z,1016.38
2017-09-19T04:16:35.155Z,1016.4
2017-09-19T04:17:56.627Z,1016.4
2017-09-19T04:19:18.428Z,1016.4
2017-09-19T04:20:39.906Z,1016.4
2017-09-19T04:22:02.454Z,1016.44
2017-09-19T04:23:24.914Z,1016.42
2017-09-19T04:24:47.040Z,1016.41
2017-09-19T04:26:08.835Z,1016.45
2017-09-19T04:27:31.293Z,1016.45
2017-09-19T04:28:53.456Z,1016.47
2017-09-19T04:30:15.896Z,1016.46
2017-09-19T04:31:37.987Z,1016.51
2017-09-19T04:32:59.799Z,1016.51
2017-09-19T04:34:21.604Z,1016.52
2017-09-19T04:35:43.524Z,1016.56
2017-09-19T04:37:05.993Z,1016.55
2017-09-19T04:38:27.804Z,1016.54
2017-09-19T04:39:49.024Z,1016.56
2017-09-19T04:41:11.295Z,1016.59
2017-09-19T04:42:33.357Z,1016.59
2017-09-19T04:43:55.165Z,1016.61
2017-09-19T04:45:17.326Z,1016.63
2017-09-19T04:46:39.495Z,1016.64
2017-09-19T04:48:02.073Z,1016.61
2017-09-19T04:49:24.226Z,1016.62
2017-09-19T04:50:46.352Z,1016.64
2017-09-19T04:52:08.504Z,1016.63
2017-09-19T04:53:31.264Z,1016.6
2017-09-19T04:54:53.073Z,1016.61
2017-09-19T04:56:15.042Z,1016.57
2017-09-19T04:57:37.173Z,1016.63
2017-09-19T04:58:59.295Z,1016.63
2017-09-19T05:00:21.526Z,1016.65
2017-09-19T05:01:43.634Z,1016.64
2017-09-19T05:03:05.453Z,1016.64
2017-09-19T05:04:27.929Z,1016.67
2017-09-19T05:05:50.383Z,1016.66
2017-09-19T05:07:12.494Z,1016.68
2017-09-19T05:08:34.952Z,1016.73
2017-09-19T05:09:56.734Z,1016.72
2017-09-19T05:11:18.023Z,1016.76
2017-09-19T05:12:40.159Z,1016.81
2017-09-19T05:14:02.604Z,1016.79
2017-09-19T05:15:24.777Z,1016.82
2017-09-19T05:16:46.597Z,1016.82
2017-09-19T05:18:08.766Z,1016.89
2017-09-19T05:19:30.985Z,1016.85
2017-09-19T05:20:53.245Z,1016.84
2017-09-19T05:22:15.405Z,1016.85
2017-09-19T05:23:36.954Z,1016.84
2017-09-19T05:24:59.401Z,1016.86
2017-09-19T05:26:21.465Z,1016.85
2017-09-19T05:27:43.586Z,1016.9
2017-09-19T05:29:06.058Z,1016.89
2017-09-19T05:30:27.886Z,1016.91
2017-09-19T05:31:50.534Z,1016.91
2017-09-19T05:33:12.799Z,1016.96
2017-09-19T05:34:34.598Z,1016.93
2017-09-19T05:35:56.507Z,1016.96
2017-09-19T05:37:18.694Z,1016.94
2017-09-19T05:38:40.833Z,1017
2017-09-19T05:40:02.658Z,1016.97
2017-09-19T05:41:24.463Z,1016.98
2017-09-19T05:42:46.624Z,1016.99
2017-09-19T05:44:08.441Z,1016.95
2017-09-19T05:45:30.948Z,1016.96
2017-09-19T05:46:53.173Z,1016.99
2017-09-19T05:48:15.253Z,1016.96
2017-09-19T05:49:37.081Z,1016.99
2017-09-19T05:50:59.606Z,1017.02
2017-09-19T05:52:21.393Z,1016.98
2017-09-19T05:53:43.194Z,1017.04
2017-09-19T05:55:05.792Z,1016.99
2017-09-19T05:56:27.593Z,1016.99
2017-09-19T05:57:49.422Z,1017.01
2017-09-19T05:59:11.676Z,1017.01
2017-09-19T06:00:33.497Z,1017.03
2017-09-19T06:01:55.343Z,1017.02
2017-09-19T06:03:16.814Z,1017.06
2017-09-19T06:04:38.973Z,1017.02
2017-09-19T06:06:01.110Z,1017.02
2017-09-19T06:07:23.563Z,1017.06
2017-09-19T06:08:45.393Z,1017.09
2017-09-19T06:10:07.758Z,1017.08
2017-09-19T06:11:30.254Z,1017.06
2017-09-19T06:12:52.064Z,1017.08
2017-09-19T06:14:13.992Z,1017.09
2017-09-19T06:15:36.812Z,1017.13
2017-09-19T06:16:58.312Z,1017.15
2017-09-19T06:18:20.144Z,1017.2
2017-09-19T06:19:41.963Z,1017.21
2017-09-19T06:21:04.163Z,1017.19
2017-09-19T06:22:26.693Z,1017.24
2017-09-19T06:23:48.197Z,1017.21
2017-09-19T06:25:10.659Z,1017.2
2017-09-19T06:26:32.815Z,1017.21
2017-09-19T06:27:54.923Z,1017.21
2017-09-19T06:29:17.055Z,1017.23
2017-09-19T06:30:39.185Z,1017.23
2017-09-19T06:32:01.718Z,1017.23
2017-09-19T06:33:23.543Z,1017.22
2017-09-19T06:34:45.826Z,1017.26
2017-09-19T06:36:07.363Z,1017.27
2017-09-19T06:37:29.734Z,1017.31
2017-09-19T06:38:51.873Z,1017.33
2017-09-19T06:40:13.372Z,1017.37
2017-09-19T06:41:35.832Z,1017.41
2017-09-19T06:42:57.986Z,1017.43
2017-09-19T06:44:20.103Z,1017.4
2017-09-19T06:45:42.211Z,1017.42
2017-09-19T06:47:04.052Z,1017.44
2017-09-19T06:48:26.421Z,1017.47
2017-09-19T06:49:48.850Z,1017.44
2017-09-19T06:51:11.010Z,1017.44
2017-09-19T06:52:32.307Z,1017.44
2017-09-19T06:53:54.752Z,1017.41
2017-09-19T06:55:17.206Z,1017.42
2017-09-19T06:56:39.321Z,1017.43
2017-09-19T06:58:01.792Z,1017.44
2017-09-19T06:59:24.163Z,1017.44
2017-09-19T07:00:45.976Z,1017.46
2017-09-19T07:02:07.555Z,1017.48
2017-09-19T07:03:29.693Z,1017.51
2017-09-19T07:04:52.413Z,1017.48
2017-09-19T07:06:13.588Z,1017.5
2017-09-19T07:07:35.394Z,1017.5
2017-09-19T07:08:57.534Z,1017.54
2017-09-19T07:10:19.683Z,1017.57
2017-09-19T07:11:42.134Z,1017.6
2017-09-19T07:13:04.294Z,1017.62
2017-09-19T07:14:26.133Z,1017.66
2017-09-19T07:15:48.179Z,1017.72
2017-09-19T07:17:09.984Z,1017.68
2017-09-19T07:18:32.091Z,1017.68
2017-09-19T07:19:54.235Z,1017.7
2017-09-19T07:21:16.403Z,1017.74
2017-09-19T07:22:38.886Z,1017.74
2017-09-19T07:24:01.433Z,1017.72
2017-09-19T07:25:22.902Z,1017.7
2017-09-19T07:26:45.083Z,1017.74
2017-09-19T07:28:06.253Z,1017.78
2017-09-19T07:29:28.393Z,1017.81
2017-09-19T07:30:50.198Z,1017.83
2017-09-19T07:32:12.959Z,1017.91
2017-09-19T07:33:35.083Z,1017.89
2017-09-19T07:34:56.884Z,1017.89
2017-09-19T07:36:19.104Z,1017.89
2017-09-19T07:37:41.614Z,1017.95
2017-09-19T07:39:03.408Z,1017.93
2017-09-19T07:40:25.223Z,1017.97
2017-09-19T07:41:47.083Z,1018
2017-09-19T07:43:09.293Z,1018.01
2017-09-19T07:44:30.849Z,1018.01
2017-09-19T07:45:52.025Z,1018
2017-09-19T07:47:13.815Z,1017.95
2017-09-19T07:48:36.618Z,1017.96
2017-09-19T07:49:58.464Z,1017.96
2017-09-19T07:51:20.902Z,1017.93
2017-09-19T07:52:42.698Z,1017.97
2017-09-19T07:54:04.794Z,1017.98
2017-09-19T07:55:26.603Z,1017.98
2017-09-19T07:56:48.413Z,1017.98
2017-09-19T07:58:10.873Z,1018.01
2017-09-19T07:59:33.364Z,1018.01
2017-09-19T08:00:55.510Z,1018.04
2017-09-19T08:02:17.636Z,1018.08
2017-09-19T08:03:39.113Z,1018.07
2017-09-19T08:05:01.176Z,1018.09
2017-09-19T08:06:23.663Z,1018.09
2017-09-19T08:07:46.165Z,1018.05
2017-09-19T08:09:08.327Z,1018.04
2017-09-19T08:10:30.493Z,1018.09
2017-09-19T08:11:52.618Z,1018.1
2017-09-19T08:13:15.073Z,1018.09
2017-09-19T08:14:37.254Z,1018.07
2017-09-19T08:16:00.053Z,1018.06
2017-09-19T08:17:22.512Z,1018.08
2017-09-19T08:18:44.443Z,1018.09
2017-09-19T08:20:05.964Z,1018.08
2017-09-19T08:21:28.532Z,1018.15
2017-09-19T08:22:50.342Z,1018.12
2017-09-19T08:24:12.853Z,1018.13
2017-09-19T08:25:34.645Z,1018.17
2017-09-19T08:26:57.122Z,1018.15
2017-09-19T08:28:18.950Z,1018.17
2017-09-19T08:29:40.433Z,1018.17
2017-09-19T08:31:01.598Z,1018.19
2017-09-19T08:32:24.094Z,1018.19
2017-09-19T08:33:46.394Z,1018.19
2017-09-19T08:35:08.259Z,1018.22
2017-09-19T08:36:30.173Z,1018.21
2017-09-19T08:37:52.523Z,1018.24
2017-09-19T08:39:14.364Z,1018.25
2017-09-19T08:40:36.492Z,1018.27
2017-09-19T08:41:58.925Z,1018.3
2017-09-19T08:43:21.442Z,1018.26
2017-09-19T08:44:43.685Z,1018.29
2017-09-19T08:46:05.189Z,1018.32
2017-09-19T08:47:27.315Z,1018.3
2017-09-19T08:48:49.754Z,1018.31
2017-09-19T08:50:12.225Z,1018.32
2017-09-19T08:51:34.373Z,1018.34
2017-09-19T08:52:56.902Z,1018.3
2017-09-19T08:54:19.303Z,1018.3
2017-09-19T08:55:41.762Z,1018.37
2017-09-19T08:57:03.694Z,1018.39
2017-09-19T08:58:25.645Z,1018.44
2017-09-19T08:59:48.254Z,1018.45
2017-09-19T09:01:10.393Z,1018.42
2017-09-19T09:02:32.542Z,1018.41
2017-09-19T09:03:54.985Z,1018.46
2017-09-19T09:05:16.421Z,1018.45
2017-09-19T09:06:37.922Z,1018.49
2017-09-19T09:08:00.065Z,1018.46
2017-09-19T09:09:21.878Z,1018.47
2017-09-19T09:10:44.052Z,1018.48
2017-09-19T09:12:05.867Z,1018.52
2017-09-19T09:13:28.020Z,1018.55
2017-09-19T09:14:50.188Z,1018.47
2017-09-19T09:16:12.027Z,1018.48
2017-09-19T09:17:33.871Z,1018.45
2017-09-19T09:18:56.316Z,1018.5
2017-09-19T09:20:18.461Z,1018.49
2017-09-19T09:21:40.603Z,1018.48
2017-09-19T09:23:02.865Z,1018.48
2017-09-19T09:24:25.322Z,1018.47
2017-09-19T09:25:46.922Z,1018.48
2017-09-19T09:27:09.054Z,1018.45
2017-09-19T09:28:31.506Z,1018.46
2017-09-19T09:29:53.644Z,1018.47
2017-09-19T09:31:16.121Z,1018.46
2017-09-19T09:32:39.312Z,1018.46
2017-09-19T09:34:01.140Z,1018.48
2017-09-19T09:35:23.313Z,1018.48
2017-09-19T09:36:45.794Z,1018.45
2017-09-19T09:38:08.544Z,1018.42
2017-09-19T09:39:30.182Z,1018.42
2017-09-19T09:40:52.788Z,1018.47
2017-09-19T09:42:15.087Z,1018.47
2017-09-19T09:43:36.552Z,1018.49
2017-09-19T09:44:58.704Z,1018.51
2017-09-19T09:46:21.156Z,1018.54
2017-09-19T09:47:43.362Z,1018.51
2017-09-19T09:49:05.590Z,1018.51
2017-09-19T09:50:27.387Z,1018.59
2017-09-19T09:51:49.534Z,1018.5
2017-09-19T09:53:11.353Z,1018.46
2017-09-19T09:54:33.793Z,1018.47
2017-09-19T09:55:55.943Z,1018.49
2017-09-19T09:57:17.438Z,1018.54
2017-09-19T09:58:38.636Z,1018.55
2017-09-19T10:00:01.137Z,1018.6
2017-09-19T10:01:22.948Z,1018.67
2017-09-19T10:02:45.530Z,1018.66
2017-09-19T10:04:07.330Z,1018.61
2017-09-19T10:05:29.824Z,1018.59
2017-09-19T10:06:51.973Z,1018.55
2017-09-19T10:08:13.803Z,1018.5
2017-09-19T10:09:36.006Z,1018.5
2017-09-19T10:10:58.524Z,1018.55
2017-09-19T10:12:20.334Z,1018.54
2017-09-19T10:13:42.473Z,1018.49
2017-09-19T10:15:04.943Z,1018.5
2017-09-19T10:16:27.094Z,1018.55
2017-09-19T10:17:48.902Z,1018.56
2017-09-19T10:19:11.053Z,1018.56
2017-09-19T10:20:32.553Z,1018.59
2017-09-19T10:21:55.265Z,1018.56
2017-09-19T10:23:17.435Z,1018.54
2017-09-19T10:24:39.263Z,1018.49
2017-09-19T10:26:00.852Z,1018.47
2017-09-19T10:27:22.692Z,1018.42
2017-09-19T10:28:44.513Z,1018.4
2017-09-19T10:30:06.697Z,1018.4
2017-09-19T10:31:28.893Z,1018.44
2017-09-19T10:32:51.084Z,1018.39
2017-09-19T10:34:12.924Z,1018.38
2017-09-19T10:35:34.742Z,1018.39
2017-09-19T10:36:56.852Z,1018.39
2017-09-19T10:39:56.044Z,1018.43
2017-09-19T10:41:17.853Z,1018.5
2017-09-19T10:42:40.317Z,1018.51
2017-09-19T10:44:02.952Z,1018.55
2017-09-19T10:45:25.105Z,1018.52
2017-09-19T10:46:47.253Z,1018.46
2017-09-19T10:48:09.378Z,1018.51
2017-09-19T10:49:31.535Z,1018.55
2017-09-19T10:50:54.008Z,1018.55
2017-09-19T10:52:16.612Z,1018.55
2017-09-19T10:53:38.423Z,1018.53
2017-09-19T10:55:00.904Z,1018.57
2017-09-19T10:56:23.053Z,1018.55
2017-09-19T10:57:45.492Z,1018.52
2017-09-19T10:59:07.315Z,1018.53
2017-09-19T11:00:29.543Z,1018.51
2017-09-19T11:01:51.713Z,1018.5
2017-09-19T11:03:14.311Z,1018.54
2017-09-19T11:04:36.455Z,1018.57
2017-09-19T11:05:58.625Z,1018.53
2017-09-19T11:07:20.169Z,1018.52
2017-09-19T11:08:41.982Z,1018.55
2017-09-19T11:10:03.503Z,1018.62
2017-09-19T11:11:25.895Z,1018.57
2017-09-19T11:12:48.368Z,1018.61
2017-09-19T11:14:10.836Z,1018.63
2017-09-19T11:15:32.680Z,1018.6
2017-09-19T11:16:54.599Z,1018.6
2017-09-19T11:18:16.747Z,1018.59
2017-09-19T11:19:39.202Z,1018.54
2017-09-19T11:21:00.726Z,1018.56
2017-09-19T11:22:23.056Z,1018.58
2017-09-19T11:23:45.248Z,1018.58
2017-09-19T11:25:06.744Z,1018.59
2017-09-19T11:26:28.893Z,1018.52
2017-09-19T11:27:51.703Z,1018.55
2017-09-19T11:29:14.153Z,1018.5
2017-09-19T11:30:36.284Z,1018.52
2017-09-19T11:31:58.743Z,1018.54
2017-09-19T11:33:21.272Z,1018.55
2017-09-19T11:34:43.424Z,1018.54
2017-09-19T11:36:05.281Z,1018.54
2017-09-19T11:37:27.413Z,1018.52
2017-09-19T11:38:50.221Z,1018.53
2017-09-19T11:40:11.708Z,1018.54
2017-09-19T11:41:33.610Z,1018.49
2017-09-19T11:42:55.774Z,1018.47
2017-09-19T11:44:18.263Z,1018.48
2017-09-19T11:45:40.412Z,1018.49
2017-09-19T11:47:01.893Z,1018.48
2017-09-19T11:48:23.825Z,1018.5
2017-09-19T11:49:45.875Z,1018.47
2017-09-19T11:51:07.685Z,1018.51
2017-09-19T11:52:30.193Z,1018.49
2017-09-19T11:53:52.349Z,1018.53
2017-09-19T11:55:15.063Z,1018.49
2017-09-19T11:56:37.203Z,1018.52
2017-09-19T11:57:59.363Z,1018.54
2017-09-19T11:59:21.180Z,1018.53
2017-09-19T12:00:42.944Z,1018.54
2017-09-19T12:02:05.517Z,1018.49
2017-09-19T12:03:27.653Z,1018.48
2017-09-19T12:04:49.465Z,1018.52
2017-09-19T12:06:11.972Z,1018.49
2017-09-19T12:07:34.125Z,1018.45
2017-09-19T12:08:56.597Z,1018.49
2017-09-19T12:10:19.069Z,1018.44
2017-09-19T12:11:41.563Z,1018.49
2017-09-19T12:13:03.999Z,1018.53
2017-09-19T12:14:26.296Z,1018.51
2017-09-19T12:15:48.169Z,1018.49
2017-09-19T12:17:10.675Z,1018.47
2017-09-19T12:18:32.813Z,1018.5
2017-09-19T12:19:54.642Z,1018.5
2017-09-19T12:21:16.138Z,1018.51
2017-09-19T12:22:38.516Z,1018.48
2017-09-19T12:24:00.951Z,1018.46
2017-09-19T12:25:23.417Z,1018.44
2017-09-19T12:26:45.225Z,1018.41
2017-09-19T12:28:08.073Z,1018.43
2017-09-19T12:29:29.900Z,1018.4
2017-09-19T12:30:51.709Z,1018.43
2017-09-19T12:32:14.153Z,1018.38
2017-09-19T12:33:36.986Z,1018.42
2017-09-19T12:34:59.466Z,1018.39
2017-09-19T12:36:21.642Z,1018.46
2017-09-19T12:37:43.496Z,1018.45
2017-09-19T12:39:06.239Z,1018.44
2017-09-19T12:40:28.413Z,1018.4
2017-09-19T12:41:50.896Z,1018.42
2017-09-19T12:43:13.043Z,1018.41
2017-09-19T12:44:35.535Z,1018.37
2017-09-19T12:45:57.345Z,1018.41
2017-09-19T12:47:19.874Z,1018.44
2017-09-19T12:48:41.682Z,1018.44
2017-09-19T12:50:03.872Z,1018.42
2017-09-19T12:51:26.019Z,1018.44
2017-09-19T12:52:48.202Z,1018.45
2017-09-19T12:54:10.354Z,1018.44
2017-09-19T12:55:33.164Z,1018.45
2017-09-19T12:56:55.326Z,1018.4
2017-09-19T12:58:17.227Z,1018.4
2017-09-19T12:59:39.403Z,1018.35
2017-09-19T13:01:02.030Z,1018.44
2017-09-19T13:02:24.199Z,1018.42
2017-09-19T13:03:46.695Z,1018.47
2017-09-19T13:05:08.537Z,1018.47
2017-09-19T13:06:30.976Z,1018.49
2017-09-19T13:07:53.154Z,1018.48
2017-09-19T13:09:15.524Z,1018.5
2017-09-19T13:10:38.016Z,1018.52
2017-09-19T13:12:00.802Z,1018.51
2017-09-19T13:13:23.015Z,1018.49
2017-09-19T13:14:45.586Z,1018.5
2017-09-19T13:16:08.072Z,1018.54
2017-09-19T13:17:30.171Z,1018.53
2017-09-19T13:18:52.314Z,1018.57
2017-09-19T13:20:14.806Z,1018.53
2017-09-19T13:21:36.965Z,1018.58
2017-09-19T13:22:59.398Z,1018.49
2017-09-19T13:24:21.541Z,1018.54
2017-09-19T13:25:43.731Z,1018.54
2017-09-19T13:27:05.902Z,1018.53
2017-09-19T13:28:28.403Z,1018.5
2017-09-19T13:29:50.357Z,1018.53
2017-09-19T13:31:12.262Z,1018.52
2017-09-19T13:32:34.758Z,1018.51
2017-09-19T13:33:57.155Z,1018.54
2017-09-19T13:35:19.302Z,1018.54
2017-09-19T13:36:41.132Z,1018.57
2017-09-19T13:38:03.624Z,1018.54
2017-09-19T13:39:25.781Z,1018.59
2017-09-19T13:40:47.662Z,1018.56
2017-09-19T13:42:09.163Z,1018.59
2017-09-19T13:43:30.353Z,1018.59
2017-09-19T13:44:52.853Z,1018.58
2017-09-19T13:46:15.001Z,1018.53
2017-09-19T13:47:36.833Z,1018.54
2017-09-19T13:48:59.023Z,1018.59
2017-09-19T13:50:21.266Z,1018.55
2017-09-19T13:51:43.455Z,1018.52
2017-09-19T13:53:05.718Z,1018.51
2017-09-19T13:54:27.949Z,1018.49
2017-09-19T13:55:50.103Z,1018.45
2017-09-19T13:57:12.683Z,1018.47
2017-09-19T13:58:34.823Z,1018.46
2017-09-19T13:59:57.307Z,1018.47
2017-09-19T14:01:19.163Z,1018.47
2017-09-19T14:02:41.439Z,1018.44
2017-09-19T14:04:03.353Z,1018.46
2017-09-19T14:05:25.865Z,1018.45
2017-09-19T14:06:48.307Z,1018.42
2017-09-19T14:08:10.482Z,1018.44
2017-09-19T14:09:32.659Z,1018.45
2017-09-19T14:10:54.824Z,1018.44
2017-09-19T14:12:17.763Z,1018.45
2017-09-19T14:13:40.254Z,1018.47
2017-09-19T14:15:02.182Z,1018.49
2017-09-19T14:16:24.022Z,1018.51
2017-09-19T14:17:46.871Z,1018.5
2017-09-19T14:19:09.361Z,1018.52
2017-09-19T14:20:30.882Z,1018.46
2017-09-19T14:21:53.441Z,1018.49
2017-09-19T14:24:52.592Z,1018.51
2017-09-19T14:26:14.552Z,1018.55
2017-09-19T14:27:36.526Z,1018.66
2017-09-19T14:28:59.050Z,1018.77
2017-09-19T14:30:20.896Z,1018.75
2017-09-19T14:31:43.102Z,1018.69
2017-09-19T14:33:05.386Z,1018.74
2017-09-19T14:34:28.227Z,1018.76
2017-09-19T14:35:50.398Z,1018.72
2017-09-19T14:37:12.902Z,1018.69
2017-09-19T14:38:35.065Z,1018.71
2017-09-19T14:39:57.892Z,1018.7
2017-09-19T14:41:20.053Z,1018.73
2017-09-19T14:42:41.894Z,1018.78
2017-09-19T14:44:03.713Z,1018.84
2017-09-19T14:45:26.434Z,1018.79
2017-09-19T14:46:49.044Z,1018.78
2017-09-19T14:48:11.213Z,1018.78
2017-09-19T14:49:32.733Z,1018.75
2017-09-19T14:50:55.251Z,1018.74
2017-09-19T14:52:17.413Z,1018.7
2017-09-19T14:53:39.564Z,1018.69
2017-09-19T14:55:01.091Z,1018.7
2017-09-19T14:56:23.662Z,1018.68
2017-09-19T14:57:45.822Z,1018.66
2017-09-19T14:59:08.014Z,1018.6
2017-09-19T15:00:30.172Z,1018.59
2017-09-19T15:01:53.059Z,1018.6
2017-09-19T15:03:15.554Z,1018.57
2017-09-19T15:04:37.703Z,1018.59
2017-09-19T15:06:00.202Z,1018.58
2017-09-19T15:07:22.688Z,1018.56
2017-09-19T15:08:44.628Z,1018.53
2017-09-19T15:10:06.779Z,1018.57
2017-09-19T15:11:28.922Z,1018.54
2017-09-19T15:12:51.142Z,1018.54
2017-09-19T15:14:13.308Z,1018.57
2017-09-19T15:15:35.493Z,1018.64
2017-09-19T15:16:57.711Z,1018.69
2017-09-19T15:18:19.921Z,1018.68
2017-09-19T15:19:41.796Z,1018.65
2017-09-19T15:21:03.644Z,1018.67
2017-09-19T15:22:25.777Z,1018.63
2017-09-19T15:23:47.902Z,1018.62
2017-09-19T15:25:09.772Z,1018.61
2017-09-19T15:26:32.251Z,1018.59
2017-09-19T15:27:54.738Z,1018.64
2017-09-19T15:29:17.197Z,1018.61
2017-09-19T15:30:39.484Z,1018.57
2017-09-19T15:32:01.708Z,1018.58
2017-09-19T15:33:23.851Z,1018.57
2017-09-19T15:34:46.348Z,1018.58
2017-09-19T15:36:08.520Z,1018.59
2017-09-19T15:37:30.770Z,1018.64
2017-09-19T15:38:52.922Z,1018.66
2017-09-19T15:40:15.022Z,1018.66
2017-09-19T15:41:36.552Z,1018.65
2017-09-19T15:42:58.391Z,1018.64
2017-09-19T15:44:20.551Z,1018.64
2017-09-19T15:45:43.223Z,1018.64
2017-09-19T15:47:05.072Z,1018.64
2017-09-19T15:48:27.609Z,1018.6
2017-09-19T15:49:50.101Z,1018.61
2017-09-19T15:51:12.545Z,1018.62
2017-09-19T15:52:34.751Z,1018.61
2017-09-19T15:53:57.345Z,1018.62
2017-09-19T15:55:19.862Z,1018.61
2017-09-19T15:56:42.324Z,1018.66
2017-09-19T15:58:04.864Z,1018.64
2017-09-19T15:59:27.340Z,1018.71
2017-09-19T16:00:49.501Z,1018.68
2017-09-19T16:02:12.340Z,1018.65
2017-09-19T16:03:34.812Z,1018.65
2017-09-19T16:04:56.961Z,1018.62
2017-09-19T16:06:19.444Z,1018.59
2017-09-19T16:07:42.253Z,1018.64
2017-09-19T16:09:04.851Z,1018.63
2017-09-19T16:10:27.318Z,1018.58
2017-09-19T16:11:49.581Z,1018.55
2017-09-19T16:13:11.743Z,1018.56
2017-09-19T16:14:33.955Z,1018.54
2017-09-19T16:15:56.089Z,1018.6
2017-09-19T16:17:18.612Z,1018.55
2017-09-19T16:18:40.793Z,1018.54
2017-09-19T16:20:03.392Z,1018.52
2017-09-19T16:21:25.875Z,1018.6
2017-09-19T16:22:47.733Z,1018.59
2017-09-19T16:24:10.546Z,1018.56
2017-09-19T16:25:32.439Z,1018.57
2017-09-19T16:26:54.972Z,1018.63
2017-09-19T16:28:16.873Z,1018.64
2017-09-19T16:29:39.711Z,1018.63
2017-09-19T16:31:01.550Z,1018.61
2017-09-19T16:32:23.406Z,1018.64
2017-09-19T16:33:45.630Z,1018.63
2017-09-19T16:35:08.173Z,1018.67
2017-09-19T16:36:30.344Z,1018.69
2017-09-19T16:37:52.823Z,1018.7
2017-09-19T16:39:15.042Z,1018.67
2017-09-19T16:40:36.885Z,1018.71